sensor_id;sensor_type;location;lat;lon;timestamp;P1;durP1;ratioP1;P2;durP2;ratioP2
81591;SDS011;71014;53.394;6.724;2023-07-08T00:01:26;10.80;;;4.07;;
81591;SDS011;71014;53.394;6.724;2023-07-08T00:03:52;11.52;;;3.88;;
81591;SDS011;71014;53.394;6.724;2023-07-08T00:06:19;4.90;;;4.03;;
81591;SDS011;71014;53.394;6.724;2023-07-08T00:08:45;5.72;;;3.72;;
81591;SDS011;71014;53.394;6.724;2023-07-08T00:11:12;5.15;;;3.88;;
81591;SDS011;71014;53.394;6.724;2023-07-08T00:16:04;5.45;;;3.38;;
81591;SDS011;71014;53.394;6.724;2023-07-08T00:18:30;9.18;;;4.25;;
81591;SDS011;71014;53.394;6.724;2023-07-08T00:20:56;6.07;;;3.40;;
81591;SDS011;71014;53.394;6.724;2023-07-08T00:23:24;3.88;;;3.28;;
81591;SDS011;71014;53.394;6.724;2023-07-08T00:25:50;8.50;;;4.10;;
81591;SDS011;71014;53.394;6.724;2023-07-08T00:28:17;5.82;;;4.15;;
81591;SDS011;71014;53.394;6.724;2023-07-08T00:30:44;4.55;;;3.35;;
81591;SDS011;71014;53.394;6.724;2023-07-08T00:33:12;5.70;;;3.47;;
81591;SDS011;71014;53.394;6.724;2023-07-08T00:43:43;6.15;;;4.32;;
81591;SDS011;71014;53.394;6.724;2023-07-08T00:48:38;5.68;;;4.13;;
81591;SDS011;71014;53.394;6.724;2023-07-08T00:51:07;6.63;;;4.10;;
81591;SDS011;71014;53.394;6.724;2023-07-08T00:53:36;6.45;;;4.07;;
81591;SDS011;71014;53.394;6.724;2023-07-08T00:58:31;6.13;;;4.30;;
81591;SDS011;71014;53.394;6.724;2023-07-08T01:00:59;5.18;;;3.65;;
81591;SDS011;71014;53.394;6.724;2023-07-08T01:03:25;7.05;;;4.55;;
81591;SDS011;71014;53.394;6.724;2023-07-08T01:05:53;6.20;;;3.97;;
81591;SDS011;71014;53.394;6.724;2023-07-08T01:08:21;8.32;;;4.03;;
81591;SDS011;71014;53.394;6.724;2023-07-08T01:10:53;6.30;;;4.15;;
81591;SDS011;71014;53.394;6.724;2023-07-08T01:13:21;6.20;;;4.40;;
81591;SDS011;71014;53.394;6.724;2023-07-08T01:15:48;8.38;;;4.57;;
81591;SDS011;71014;53.394;6.724;2023-07-08T01:18:15;6.18;;;3.95;;
81591;SDS011;71014;53.394;6.724;2023-07-08T01:20:41;8.65;;;4.22;;
81591;SDS011;71014;53.394;6.724;2023-07-08T01:23:07;6.25;;;3.97;;
81591;SDS011;71014;53.394;6.724;2023-07-08T01:25:35;9.60;;;4.45;;
81591;SDS011;71014;53.394;6.724;2023-07-08T01:28:01;6.38;;;4.05;;
81591;SDS011;71014;53.394;6.724;2023-07-08T01:30:29;7.32;;;4.45;;
81591;SDS011;71014;53.394;6.724;2023-07-08T01:32:56;7.35;;;4.07;;
81591;SDS011;71014;53.394;6.724;2023-07-08T01:35:23;6.03;;;4.40;;
81591;SDS011;71014;53.394;6.724;2023-07-08T01:37:51;5.10;;;4.00;;
81591;SDS011;71014;53.394;6.724;2023-07-08T01:40:25;8.65;;;4.45;;
81591;SDS011;71014;53.394;6.724;2023-07-08T01:42:52;5.43;;;3.97;;
81591;SDS011;71014;53.394;6.724;2023-07-08T01:45:19;6.68;;;4.40;;
81591;SDS011;71014;53.394;6.724;2023-07-08T01:47:47;6.22;;;4.50;;
81591;SDS011;71014;53.394;6.724;2023-07-08T01:50:14;9.00;;;4.85;;
81591;SDS011;71014;53.394;6.724;2023-07-08T01:52:40;7.45;;;5.05;;
81591;SDS011;71014;53.394;6.724;2023-07-08T01:55:06;5.32;;;4.43;;
81591;SDS011;71014;53.394;6.724;2023-07-08T01:57:32;7.88;;;4.60;;
81591;SDS011;71014;53.394;6.724;2023-07-08T01:59:58;7.47;;;4.13;;
81591;SDS011;71014;53.394;6.724;2023-07-08T02:02:24;5.93;;;4.25;;
81591;SDS011;71014;53.394;6.724;2023-07-08T02:04:50;7.40;;;4.00;;
81591;SDS011;71014;53.394;6.724;2023-07-08T02:07:16;8.05;;;3.92;;
81591;SDS011;71014;53.394;6.724;2023-07-08T02:09:42;8.68;;;4.28;;
81591;SDS011;71014;53.394;6.724;2023-07-08T02:12:08;7.50;;;4.82;;
81591;SDS011;71014;53.394;6.724;2023-07-08T02:14:34;6.85;;;4.88;;
81591;SDS011;71014;53.394;6.724;2023-07-08T02:17:00;5.93;;;4.45;;
81591;SDS011;71014;53.394;6.724;2023-07-08T02:19:30;9.45;;;5.05;;
81591;SDS011;71014;53.394;6.724;2023-07-08T02:21:56;7.97;;;4.82;;
81591;SDS011;71014;53.394;6.724;2023-07-08T02:24:22;6.40;;;5.00;;
81591;SDS011;71014;53.394;6.724;2023-07-08T02:26:49;6.35;;;4.53;;
81591;SDS011;71014;53.394;6.724;2023-07-08T02:29:15;7.38;;;4.50;;
81591;SDS011;71014;53.394;6.724;2023-07-08T02:31:41;5.53;;;4.68;;
81591;SDS011;71014;53.394;6.724;2023-07-08T02:34:07;8.00;;;5.38;;
81591;SDS011;71014;53.394;6.724;2023-07-08T02:36:33;6.07;;;4.18;;
81591;SDS011;71014;53.394;6.724;2023-07-08T02:38:59;5.50;;;4.40;;
81591;SDS011;71014;53.394;6.724;2023-07-08T02:41:25;8.98;;;5.13;;
81591;SDS011;71014;53.394;6.724;2023-07-08T02:43:51;8.77;;;4.97;;
81591;SDS011;71014;53.394;6.724;2023-07-08T02:46:17;9.77;;;4.93;;
81591;SDS011;71014;53.394;6.724;2023-07-08T02:48:43;6.75;;;4.70;;
81591;SDS011;71014;53.394;6.724;2023-07-08T02:51:09;9.88;;;4.80;;
81591;SDS011;71014;53.394;6.724;2023-07-08T02:53:35;7.15;;;4.82;;
81591;SDS011;71014;53.394;6.724;2023-07-08T02:56:01;9.65;;;5.10;;
81591;SDS011;71014;53.394;6.724;2023-07-08T02:58:27;7.05;;;5.05;;
81591;SDS011;71014;53.394;6.724;2023-07-08T03:03:20;6.05;;;5.05;;
81591;SDS011;71014;53.394;6.724;2023-07-08T03:05:59;6.10;;;5.03;;
81591;SDS011;71014;53.394;6.724;2023-07-08T03:08:26;6.72;;;5.28;;
81591;SDS011;71014;53.394;6.724;2023-07-08T03:10:57;6.80;;;4.90;;
81591;SDS011;71014;53.394;6.724;2023-07-08T03:13:23;9.18;;;5.63;;
81591;SDS011;71014;53.394;6.724;2023-07-08T03:15:49;8.10;;;5.38;;
81591;SDS011;71014;53.394;6.724;2023-07-08T03:18:15;10.20;;;5.53;;
81591;SDS011;71014;53.394;6.724;2023-07-08T03:20:41;8.02;;;5.53;;
81591;SDS011;71014;53.394;6.724;2023-07-08T03:23:11;7.20;;;5.50;;
81591;SDS011;71014;53.394;6.724;2023-07-08T03:25:37;6.35;;;5.30;;
81591;SDS011;71014;53.394;6.724;2023-07-08T03:28:04;7.40;;;5.45;;
81591;SDS011;71014;53.394;6.724;2023-07-08T03:30:39;6.88;;;5.28;;
81591;SDS011;71014;53.394;6.724;2023-07-08T03:33:05;8.30;;;6.22;;
81591;SDS011;71014;53.394;6.724;2023-07-08T03:35:31;8.48;;;5.40;;
81591;SDS011;71014;53.394;6.724;2023-07-08T03:37:57;9.70;;;5.78;;
81591;SDS011;71014;53.394;6.724;2023-07-08T03:40:23;10.38;;;6.50;;
81591;SDS011;71014;53.394;6.724;2023-07-08T03:42:49;7.72;;;6.07;;
81591;SDS011;71014;53.394;6.724;2023-07-08T03:45:15;9.35;;;6.22;;
81591;SDS011;71014;53.394;6.724;2023-07-08T03:47:41;7.72;;;5.75;;
81591;SDS011;71014;53.394;6.724;2023-07-08T03:50:11;11.35;;;5.55;;
81591;SDS011;71014;53.394;6.724;2023-07-08T03:52:42;8.05;;;6.22;;
81591;SDS011;71014;53.394;6.724;2023-07-08T03:55:09;8.60;;;6.38;;
81591;SDS011;71014;53.394;6.724;2023-07-08T03:57:36;8.13;;;5.72;;
81591;SDS011;71014;53.394;6.724;2023-07-08T04:00:02;7.13;;;5.60;;
81591;SDS011;71014;53.394;6.724;2023-07-08T04:02:28;10.23;;;6.35;;
81591;SDS011;71014;53.394;6.724;2023-07-08T04:04:54;7.13;;;5.57;;
81591;SDS011;71014;53.394;6.724;2023-07-08T04:07:20;9.27;;;5.88;;
81591;SDS011;71014;53.394;6.724;2023-07-08T04:09:46;9.80;;;6.25;;
81591;SDS011;71014;53.394;6.724;2023-07-08T04:12:15;8.68;;;5.97;;
81591;SDS011;71014;53.394;6.724;2023-07-08T04:14:41;9.85;;;6.18;;
81591;SDS011;71014;53.394;6.724;2023-07-08T04:17:08;11.40;;;5.93;;
81591;SDS011;71014;53.394;6.724;2023-07-08T04:19:34;8.43;;;6.00;;
81591;SDS011;71014;53.394;6.724;2023-07-08T04:22:01;8.15;;;5.63;;
81591;SDS011;71014;53.394;6.724;2023-07-08T04:24:28;7.47;;;5.50;;
81591;SDS011;71014;53.394;6.724;2023-07-08T04:26:54;9.82;;;6.35;;
81591;SDS011;71014;53.394;6.724;2023-07-08T04:29:21;9.15;;;7.78;;
81591;SDS011;71014;53.394;6.724;2023-07-08T04:34:13;15.43;;;7.97;;
81591;SDS011;71014;53.394;6.724;2023-07-08T04:36:39;8.68;;;6.13;;
81591;SDS011;71014;53.394;6.724;2023-07-08T04:39:06;7.50;;;5.97;;
81591;SDS011;71014;53.394;6.724;2023-07-08T04:41:33;6.68;;;5.93;;
81591;SDS011;71014;53.394;6.724;2023-07-08T04:43:59;7.15;;;6.10;;
81591;SDS011;71014;53.394;6.724;2023-07-08T04:47:13;8.90;;;6.28;;
81591;SDS011;71014;53.394;6.724;2023-07-08T04:49:13;8.90;;;6.43;;
81591;SDS011;71014;53.394;6.724;2023-07-08T04:51:40;9.40;;;5.97;;
81591;SDS011;71014;53.394;6.724;2023-07-08T04:54:06;8.73;;;6.57;;
81591;SDS011;71014;53.394;6.724;2023-07-08T04:58:58;7.65;;;6.47;;
81591;SDS011;71014;53.394;6.724;2023-07-08T05:01:24;11.10;;;6.78;;
81591;SDS011;71014;53.394;6.724;2023-07-08T05:03:51;9.40;;;6.40;;
81591;SDS011;71014;53.394;6.724;2023-07-08T05:06:17;8.15;;;6.35;;
81591;SDS011;71014;53.394;6.724;2023-07-08T05:08:43;8.20;;;6.10;;
81591;SDS011;71014;53.394;6.724;2023-07-08T05:11:09;8.88;;;6.85;;
81591;SDS011;71014;53.394;6.724;2023-07-08T05:13:35;9.55;;;6.63;;
81591;SDS011;71014;53.394;6.724;2023-07-08T05:16:01;7.88;;;5.88;;
81591;SDS011;71014;53.394;6.724;2023-07-08T05:18:27;9.70;;;6.30;;
81591;SDS011;71014;53.394;6.724;2023-07-08T05:20:53;7.45;;;6.00;;
81591;SDS011;71014;53.394;6.724;2023-07-08T05:23:20;6.90;;;6.20;;
81591;SDS011;71014;53.394;6.724;2023-07-08T05:25:46;10.50;;;5.93;;
81591;SDS011;71014;53.394;6.724;2023-07-08T05:28:12;7.20;;;5.95;;
81591;SDS011;71014;53.394;6.724;2023-07-08T05:30:39;9.63;;;5.80;;
81591;SDS011;71014;53.394;6.724;2023-07-08T05:33:06;7.95;;;5.50;;
81591;SDS011;71014;53.394;6.724;2023-07-08T05:35:32;8.05;;;5.63;;
81591;SDS011;71014;53.394;6.724;2023-07-08T05:37:58;10.85;;;5.93;;
81591;SDS011;71014;53.394;6.724;2023-07-08T05:40:24;8.00;;;5.72;;
81591;SDS011;71014;53.394;6.724;2023-07-08T05:42:51;7.88;;;5.80;;
81591;SDS011;71014;53.394;6.724;2023-07-08T05:45:17;8.35;;;6.63;;
81591;SDS011;71014;53.394;6.724;2023-07-08T05:47:43;7.40;;;5.68;;
81591;SDS011;71014;53.394;6.724;2023-07-08T05:50:09;9.13;;;5.45;;
81591;SDS011;71014;53.394;6.724;2023-07-08T05:52:35;10.98;;;6.28;;
81591;SDS011;71014;53.394;6.724;2023-07-08T05:55:01;8.43;;;5.72;;
81591;SDS011;71014;53.394;6.724;2023-07-08T05:57:27;9.60;;;4.88;;
81591;SDS011;71014;53.394;6.724;2023-07-08T05:59:53;9.10;;;5.65;;
81591;SDS011;71014;53.394;6.724;2023-07-08T06:02:19;8.13;;;5.68;;
81591;SDS011;71014;53.394;6.724;2023-07-08T06:04:48;8.68;;;5.43;;
81591;SDS011;71014;53.394;6.724;2023-07-08T06:07:14;6.53;;;5.45;;
81591;SDS011;71014;53.394;6.724;2023-07-08T06:09:41;7.45;;;4.97;;
81591;SDS011;71014;53.394;6.724;2023-07-08T06:12:07;6.82;;;5.53;;
81591;SDS011;71014;53.394;6.724;2023-07-08T06:14:33;5.93;;;5.32;;
81591;SDS011;71014;53.394;6.724;2023-07-08T06:16:59;6.60;;;5.05;;
81591;SDS011;71014;53.394;6.724;2023-07-08T06:19:25;7.10;;;5.35;;
81591;SDS011;71014;53.394;6.724;2023-07-08T06:21:51;7.93;;;5.30;;
81591;SDS011;71014;53.394;6.724;2023-07-08T06:24:17;7.95;;;5.65;;
81591;SDS011;71014;53.394;6.724;2023-07-08T06:26:43;6.45;;;4.82;;
81591;SDS011;71014;53.394;6.724;2023-07-08T06:29:09;7.10;;;5.28;;
81591;SDS011;71014;53.394;6.724;2023-07-08T06:31:35;6.53;;;5.75;;
81591;SDS011;71014;53.394;6.724;2023-07-08T06:34:01;8.70;;;5.35;;
81591;SDS011;71014;53.394;6.724;2023-07-08T06:36:27;6.75;;;4.70;;
81591;SDS011;71014;53.394;6.724;2023-07-08T06:38:53;7.22;;;5.60;;
81591;SDS011;71014;53.394;6.724;2023-07-08T06:41:19;6.40;;;4.95;;
81591;SDS011;71014;53.394;6.724;2023-07-08T06:43:45;6.18;;;4.07;;
81591;SDS011;71014;53.394;6.724;2023-07-08T06:46:13;6.95;;;4.85;;
81591;SDS011;71014;53.394;6.724;2023-07-08T06:48:39;5.78;;;4.30;;
81591;SDS011;71014;53.394;6.724;2023-07-08T06:51:05;6.40;;;4.43;;
81591;SDS011;71014;53.394;6.724;2023-07-08T06:53:31;6.50;;;5.05;;
81591;SDS011;71014;53.394;6.724;2023-07-08T06:55:57;10.27;;;4.80;;
81591;SDS011;71014;53.394;6.724;2023-07-08T06:58:23;6.60;;;4.13;;
81591;SDS011;71014;53.394;6.724;2023-07-08T07:00:49;6.32;;;4.70;;
81591;SDS011;71014;53.394;6.724;2023-07-08T07:03:15;7.15;;;4.57;;
81591;SDS011;71014;53.394;6.724;2023-07-08T07:05:41;4.88;;;4.13;;
81591;SDS011;71014;53.394;6.724;2023-07-08T07:08:07;6.20;;;4.07;;
81591;SDS011;71014;53.394;6.724;2023-07-08T07:10:33;6.25;;;4.03;;
81591;SDS011;71014;53.394;6.724;2023-07-08T07:12:59;6.15;;;4.15;;
81591;SDS011;71014;53.394;6.724;2023-07-08T07:15:26;5.32;;;3.95;;
81591;SDS011;71014;53.394;6.724;2023-07-08T07:17:52;4.43;;;3.63;;
81591;SDS011;71014;53.394;6.724;2023-07-08T07:20:18;4.43;;;3.53;;
81591;SDS011;71014;53.394;6.724;2023-07-08T07:22:44;7.80;;;4.03;;
81591;SDS011;71014;53.394;6.724;2023-07-08T07:27:36;6.13;;;3.65;;
81591;SDS011;71014;53.394;6.724;2023-07-08T07:30:02;4.88;;;3.50;;
81591;SDS011;71014;53.394;6.724;2023-07-08T07:34:55;5.18;;;2.97;;
81591;SDS011;71014;53.394;6.724;2023-07-08T07:37:22;4.47;;;3.10;;
81591;SDS011;71014;53.394;6.724;2023-07-08T07:39:48;5.50;;;3.40;;
81591;SDS011;71014;53.394;6.724;2023-07-08T07:42:15;4.30;;;2.88;;
81591;SDS011;71014;53.394;6.724;2023-07-08T07:44:41;4.07;;;2.67;;
81591;SDS011;71014;53.394;6.724;2023-07-08T07:47:08;4.53;;;3.00;;
81591;SDS011;71014;53.394;6.724;2023-07-08T07:49:34;4.13;;;2.92;;
81591;SDS011;71014;53.394;6.724;2023-07-08T07:52:00;5.80;;;3.35;;
81591;SDS011;71014;53.394;6.724;2023-07-08T07:54:26;3.95;;;3.03;;
81591;SDS011;71014;53.394;6.724;2023-07-08T07:56:52;5.28;;;3.33;;
81591;SDS011;71014;53.394;6.724;2023-07-08T07:59:18;2.97;;;2.67;;
81591;SDS011;71014;53.394;6.724;2023-07-08T08:01:44;6.68;;;3.00;;
81591;SDS011;71014;53.394;6.724;2023-07-08T08:04:10;9.65;;;3.40;;
81591;SDS011;71014;53.394;6.724;2023-07-08T08:06:37;3.22;;;2.38;;
81591;SDS011;71014;53.394;6.724;2023-07-08T08:11:29;2.95;;;2.55;;
81591;SDS011;71014;53.394;6.724;2023-07-08T08:13:55;5.72;;;2.88;;
81591;SDS011;71014;53.394;6.724;2023-07-08T08:16:21;4.30;;;3.10;;
81591;SDS011;71014;53.394;6.724;2023-07-08T08:18:48;3.80;;;2.63;;
81591;SDS011;71014;53.394;6.724;2023-07-08T08:21:14;3.55;;;2.70;;
81591;SDS011;71014;53.394;6.724;2023-07-08T08:26:06;5.32;;;2.65;;
81591;SDS011;71014;53.394;6.724;2023-07-08T08:28:32;3.63;;;2.88;;
81591;SDS011;71014;53.394;6.724;2023-07-08T08:30:58;5.53;;;3.28;;
81591;SDS011;71014;53.394;6.724;2023-07-08T08:33:24;3.95;;;2.80;;
81591;SDS011;71014;53.394;6.724;2023-07-08T08:35:50;3.28;;;2.53;;
81591;SDS011;71014;53.394;6.724;2023-07-08T08:38:16;4.15;;;2.83;;
81591;SDS011;71014;53.394;6.724;2023-07-08T08:40:42;5.50;;;3.00;;
81591;SDS011;71014;53.394;6.724;2023-07-08T08:45:58;4.20;;;3.10;;
81591;SDS011;71014;53.394;6.724;2023-07-08T08:48:25;5.25;;;2.70;;
81591;SDS011;71014;53.394;6.724;2023-07-08T08:50:53;3.63;;;3.15;;
81591;SDS011;71014;53.394;6.724;2023-07-08T08:53:21;3.53;;;2.78;;
81591;SDS011;71014;53.394;6.724;2023-07-08T08:55:54;4.28;;;2.63;;
81591;SDS011;71014;53.394;6.724;2023-07-08T09:05:46;3.50;;;3.08;;
81591;SDS011;71014;53.394;6.724;2023-07-08T09:13:04;5.07;;;2.88;;
81591;SDS011;71014;53.394;6.724;2023-07-08T09:15:32;3.10;;;2.80;;
81591;SDS011;71014;53.394;6.724;2023-07-08T09:17:59;3.63;;;2.70;;
81591;SDS011;71014;53.394;6.724;2023-07-08T09:20:29;4.78;;;3.10;;
81591;SDS011;71014;53.394;6.724;2023-07-08T09:27:46;3.22;;;2.65;;
81591;SDS011;71014;53.394;6.724;2023-07-08T09:35:06;2.95;;;2.65;;
81591;SDS011;71014;53.394;6.724;2023-07-08T09:37:33;2.95;;;2.70;;
81591;SDS011;71014;53.394;6.724;2023-07-08T09:40:03;3.45;;;2.80;;
81591;SDS011;71014;53.394;6.724;2023-07-08T09:42:30;3.30;;;3.00;;
81591;SDS011;71014;53.394;6.724;2023-07-08T09:44:57;3.20;;;2.70;;
81591;SDS011;71014;53.394;6.724;2023-07-08T09:47:25;3.83;;;2.35;;
81591;SDS011;71014;53.394;6.724;2023-07-08T09:49:56;5.53;;;3.13;;
81591;SDS011;71014;53.394;6.724;2023-07-08T09:52:22;3.45;;;2.72;;
81591;SDS011;71014;53.394;6.724;2023-07-08T09:54:48;4.90;;;2.63;;
81591;SDS011;71014;53.394;6.724;2023-07-08T09:57:30;6.45;;;2.95;;
81591;SDS011;71014;53.394;6.724;2023-07-08T09:59:58;4.85;;;2.83;;
81591;SDS011;71014;53.394;6.724;2023-07-08T10:04:57;3.08;;;2.63;;
81591;SDS011;71014;53.394;6.724;2023-07-08T10:07:23;4.00;;;2.53;;
81591;SDS011;71014;53.394;6.724;2023-07-08T10:09:50;4.53;;;2.97;;
81591;SDS011;71014;53.394;6.724;2023-07-08T10:12:18;5.82;;;2.47;;
81591;SDS011;71014;53.394;6.724;2023-07-08T10:14:47;3.03;;;2.70;;
81591;SDS011;71014;53.394;6.724;2023-07-08T10:17:15;3.08;;;2.78;;
81591;SDS011;71014;53.394;6.724;2023-07-08T10:19:41;4.30;;;3.28;;
81591;SDS011;71014;53.394;6.724;2023-07-08T10:24:51;4.90;;;2.35;;
81591;SDS011;71014;53.394;6.724;2023-07-08T10:30:07;3.08;;;2.53;;
81591;SDS011;71014;53.394;6.724;2023-07-08T10:32:40;4.25;;;3.05;;
81591;SDS011;71014;53.394;6.724;2023-07-08T10:37:43;3.33;;;2.38;;
81591;SDS011;71014;53.394;6.724;2023-07-08T11:04:10;5.22;;;2.33;;
81591;SDS011;71014;53.394;6.724;2023-07-08T11:06:51;3.78;;;2.78;;
81591;SDS011;71014;53.394;6.724;2023-07-08T11:09:27;4.63;;;2.80;;
81591;SDS011;71014;53.394;6.724;2023-07-08T11:11:58;3.15;;;2.60;;
81591;SDS011;71014;53.394;6.724;2023-07-08T11:14:31;5.30;;;2.58;;
81591;SDS011;71014;53.394;6.724;2023-07-08T11:17:14;2.63;;;2.42;;
81591;SDS011;71014;53.394;6.724;2023-07-08T11:19:46;4.07;;;2.90;;
81591;SDS011;71014;53.394;6.724;2023-07-08T11:22:14;2.72;;;2.53;;
81591;SDS011;71014;53.394;6.724;2023-07-08T11:24:44;3.55;;;2.83;;
81591;SDS011;71014;53.394;6.724;2023-07-08T11:29:42;2.70;;;2.50;;
81591;SDS011;71014;53.394;6.724;2023-07-08T11:32:11;4.43;;;3.10;;
81591;SDS011;71014;53.394;6.724;2023-07-08T11:34:38;6.50;;;2.65;;
81591;SDS011;71014;53.394;6.724;2023-07-08T11:37:07;3.58;;;2.88;;
81591;SDS011;71014;53.394;6.724;2023-07-08T11:39:38;3.65;;;2.72;;
81591;SDS011;71014;53.394;6.724;2023-07-08T11:42:05;3.33;;;2.85;;
81591;SDS011;71014;53.394;6.724;2023-07-08T11:44:41;2.92;;;2.55;;
81591;SDS011;71014;53.394;6.724;2023-07-08T11:47:13;2.95;;;2.65;;
81591;SDS011;71014;53.394;6.724;2023-07-08T11:49:41;3.55;;;2.70;;
81591;SDS011;71014;53.394;6.724;2023-07-08T11:52:08;5.35;;;3.08;;
81591;SDS011;71014;53.394;6.724;2023-07-08T11:54:39;3.95;;;2.80;;
81591;SDS011;71014;53.394;6.724;2023-07-08T11:57:16;4.95;;;3.22;;
81591;SDS011;71014;53.394;6.724;2023-07-08T11:59:43;4.32;;;2.63;;
81591;SDS011;71014;53.394;6.724;2023-07-08T12:02:19;3.55;;;2.90;;
81591;SDS011;71014;53.394;6.724;2023-07-08T12:05:11;3.03;;;2.72;;
81591;SDS011;71014;53.394;6.724;2023-07-08T12:07:42;7.18;;;3.10;;
81591;SDS011;71014;53.394;6.724;2023-07-08T12:10:11;4.10;;;3.00;;
81591;SDS011;71014;53.394;6.724;2023-07-08T12:12:40;3.50;;;2.70;;
81591;SDS011;71014;53.394;6.724;2023-07-08T12:15:25;3.67;;;2.80;;
81591;SDS011;71014;53.394;6.724;2023-07-08T12:17:55;4.18;;;3.05;;
81591;SDS011;71014;53.394;6.724;2023-07-08T12:20:31;2.85;;;2.47;;
81591;SDS011;71014;53.394;6.724;2023-07-08T12:22:58;3.88;;;3.00;;
81591;SDS011;71014;53.394;6.724;2023-07-08T12:25:30;4.60;;;3.03;;
81591;SDS011;71014;53.394;6.724;2023-07-08T12:27:57;5.28;;;3.65;;
81591;SDS011;71014;53.394;6.724;2023-07-08T12:30:23;3.67;;;2.78;;
81591;SDS011;71014;53.394;6.724;2023-07-08T12:32:49;5.15;;;3.33;;
81591;SDS011;71014;53.394;6.724;2023-07-08T12:40:14;3.97;;;2.70;;
81591;SDS011;71014;53.394;6.724;2023-07-08T12:42:40;3.72;;;2.88;;
81591;SDS011;71014;53.394;6.724;2023-07-08T12:45:12;3.42;;;2.75;;
81591;SDS011;71014;53.394;6.724;2023-07-08T12:47:38;4.30;;;3.53;;
81591;SDS011;71014;53.394;6.724;2023-07-08T12:50:05;4.90;;;3.22;;
81591;SDS011;71014;53.394;6.724;2023-07-08T12:52:31;3.67;;;3.25;;
81591;SDS011;71014;53.394;6.724;2023-07-08T12:54:57;3.40;;;3.08;;
81591;SDS011;71014;53.394;6.724;2023-07-08T12:57:23;4.25;;;3.15;;
81591;SDS011;71014;53.394;6.724;2023-07-08T12:59:49;4.10;;;3.13;;
81591;SDS011;71014;53.394;6.724;2023-07-08T13:02:15;5.78;;;3.58;;
81591;SDS011;71014;53.394;6.724;2023-07-08T13:04:43;4.80;;;3.58;;
81591;SDS011;71014;53.394;6.724;2023-07-08T13:07:15;5.10;;;3.08;;
81591;SDS011;71014;53.394;6.724;2023-07-08T13:09:46;3.85;;;3.25;;
81591;SDS011;71014;53.394;6.724;2023-07-08T13:12:17;5.95;;;3.70;;
81591;SDS011;71014;53.394;6.724;2023-07-08T13:14:47;4.72;;;3.38;;
81591;SDS011;71014;53.394;6.724;2023-07-08T13:17:14;3.95;;;3.10;;
81591;SDS011;71014;53.394;6.724;2023-07-08T13:19:41;6.20;;;3.30;;
81591;SDS011;71014;53.394;6.724;2023-07-08T13:22:19;6.10;;;3.78;;
81591;SDS011;71014;53.394;6.724;2023-07-08T13:24:45;4.68;;;3.25;;
81591;SDS011;71014;53.394;6.724;2023-07-08T13:27:22;4.55;;;3.22;;
81591;SDS011;71014;53.394;6.724;2023-07-08T13:29:51;5.05;;;3.30;;
81591;SDS011;71014;53.394;6.724;2023-07-08T13:32:17;4.93;;;3.25;;
81591;SDS011;71014;53.394;6.724;2023-07-08T13:34:43;4.47;;;3.58;;
81591;SDS011;71014;53.394;6.724;2023-07-08T13:37:10;4.97;;;3.22;;
81591;SDS011;71014;53.394;6.724;2023-07-08T13:39:38;3.63;;;3.33;;
81591;SDS011;71014;53.394;6.724;2023-07-08T13:42:05;4.72;;;3.28;;
81591;SDS011;71014;53.394;6.724;2023-07-08T13:44:32;4.85;;;3.50;;
81591;SDS011;71014;53.394;6.724;2023-07-08T13:46:59;4.38;;;3.95;;
81591;SDS011;71014;53.394;6.724;2023-07-08T13:49:44;3.78;;;3.40;;
81591;SDS011;71014;53.394;6.724;2023-07-08T13:54:44;7.57;;;3.47;;
81591;SDS011;71014;53.394;6.724;2023-07-08T13:57:12;7.13;;;4.07;;
81591;SDS011;71014;53.394;6.724;2023-07-08T13:59:40;3.88;;;3.42;;
81591;SDS011;71014;53.394;6.724;2023-07-08T14:02:17;4.80;;;3.75;;
81591;SDS011;71014;53.394;6.724;2023-07-08T14:04:44;5.65;;;3.88;;
81591;SDS011;71014;53.394;6.724;2023-07-08T14:07:15;3.78;;;3.40;;
81591;SDS011;71014;53.394;6.724;2023-07-08T14:09:41;6.20;;;3.60;;
81591;SDS011;71014;53.394;6.724;2023-07-08T14:12:08;4.72;;;3.67;;
81591;SDS011;71014;53.394;6.724;2023-07-08T14:14:34;5.15;;;4.07;;
81591;SDS011;71014;53.394;6.724;2023-07-08T14:17:00;5.38;;;3.70;;
81591;SDS011;71014;53.394;6.724;2023-07-08T14:19:27;5.22;;;4.03;;
81591;SDS011;71014;53.394;6.724;2023-07-08T14:21:57;3.80;;;3.50;;
81591;SDS011;71014;53.394;6.724;2023-07-08T14:24:24;5.22;;;3.63;;
81591;SDS011;71014;53.394;6.724;2023-07-08T14:26:51;6.00;;;3.92;;
81591;SDS011;71014;53.394;6.724;2023-07-08T14:29:17;4.40;;;3.75;;
81591;SDS011;71014;53.394;6.724;2023-07-08T14:31:44;4.32;;;3.92;;
81591;SDS011;71014;53.394;6.724;2023-07-08T14:34:17;6.45;;;4.03;;
81591;SDS011;71014;53.394;6.724;2023-07-08T14:36:46;4.35;;;3.95;;
81591;SDS011;71014;53.394;6.724;2023-07-08T14:39:15;4.38;;;3.95;;
81591;SDS011;71014;53.394;6.724;2023-07-08T14:41:42;4.22;;;3.67;;
81591;SDS011;71014;53.394;6.724;2023-07-08T14:44:19;4.40;;;4.00;;
81591;SDS011;71014;53.394;6.724;2023-07-08T14:46:45;5.85;;;4.40;;
81591;SDS011;71014;53.394;6.724;2023-07-08T14:49:15;4.95;;;3.65;;
81591;SDS011;71014;53.394;6.724;2023-07-08T14:51:41;5.25;;;4.18;;
81591;SDS011;71014;53.394;6.724;2023-07-08T14:54:07;4.50;;;3.92;;
81591;SDS011;71014;53.394;6.724;2023-07-08T14:56:33;4.45;;;4.05;;
81591;SDS011;71014;53.394;6.724;2023-07-08T14:58:59;6.45;;;4.40;;
81591;SDS011;71014;53.394;6.724;2023-07-08T15:01:25;4.15;;;3.75;;
81591;SDS011;71014;53.394;6.724;2023-07-08T15:03:55;4.50;;;4.10;;
81591;SDS011;71014;53.394;6.724;2023-07-08T15:06:21;5.20;;;4.35;;
81591;SDS011;71014;53.394;6.724;2023-07-08T15:08:47;7.22;;;4.10;;
81591;SDS011;71014;53.394;6.724;2023-07-08T15:11:13;4.95;;;4.45;;
81591;SDS011;71014;53.394;6.724;2023-07-08T15:13:39;5.13;;;3.83;;
81591;SDS011;71014;53.394;6.724;2023-07-08T15:16:10;4.68;;;4.18;;
81591;SDS011;71014;53.394;6.724;2023-07-08T15:18:38;5.25;;;4.10;;
81591;SDS011;71014;53.394;6.724;2023-07-08T15:21:04;6.90;;;4.18;;
81591;SDS011;71014;53.394;6.724;2023-07-08T15:23:30;6.80;;;4.20;;
81591;SDS011;71014;53.394;6.724;2023-07-08T15:25:56;6.25;;;4.25;;
81591;SDS011;71014;53.394;6.724;2023-07-08T15:28:34;4.88;;;4.20;;
81591;SDS011;71014;53.394;6.724;2023-07-08T15:31:01;5.72;;;4.35;;
81591;SDS011;71014;53.394;6.724;2023-07-08T15:33:28;5.95;;;4.35;;
81591;SDS011;71014;53.394;6.724;2023-07-08T15:35:54;5.18;;;4.25;;
81591;SDS011;71014;53.394;6.724;2023-07-08T15:38:20;6.43;;;4.18;;
81591;SDS011;71014;53.394;6.724;2023-07-08T15:40:46;4.68;;;4.28;;
81591;SDS011;71014;53.394;6.724;2023-07-08T15:43:13;5.75;;;4.30;;
81591;SDS011;71014;53.394;6.724;2023-07-08T15:45:40;5.18;;;4.25;;
81591;SDS011;71014;53.394;6.724;2023-07-08T15:48:16;5.68;;;4.50;;
81591;SDS011;71014;53.394;6.724;2023-07-08T15:50:42;5.47;;;4.60;;
81591;SDS011;71014;53.394;6.724;2023-07-08T15:53:08;4.72;;;4.22;;
81591;SDS011;71014;53.394;6.724;2023-07-08T15:55:36;4.93;;;4.43;;
81591;SDS011;71014;53.394;6.724;2023-07-08T15:58:03;4.45;;;4.05;;
81591;SDS011;71014;53.394;6.724;2023-07-08T16:00:38;4.32;;;3.92;;
81591;SDS011;71014;53.394;6.724;2023-07-08T16:03:06;5.50;;;4.72;;
81591;SDS011;71014;53.394;6.724;2023-07-08T16:05:33;6.55;;;4.22;;
81591;SDS011;71014;53.394;6.724;2023-07-08T16:08:01;4.95;;;3.97;;
81591;SDS011;71014;53.394;6.724;2023-07-08T16:10:28;7.10;;;4.30;;
81591;SDS011;71014;53.394;6.724;2023-07-08T16:12:54;4.72;;;3.80;;
81591;SDS011;71014;53.394;6.724;2023-07-08T16:15:28;5.72;;;4.30;;
81591;SDS011;71014;53.394;6.724;2023-07-08T16:17:55;5.13;;;4.22;;
81591;SDS011;71014;53.394;6.724;2023-07-08T16:20:22;6.20;;;4.10;;
81591;SDS011;71014;53.394;6.724;2023-07-08T16:22:48;7.82;;;4.60;;
81591;SDS011;71014;53.394;6.724;2023-07-08T16:25:14;4.93;;;4.22;;
81591;SDS011;71014;53.394;6.724;2023-07-08T16:27:44;5.85;;;4.25;;
81591;SDS011;71014;53.394;6.724;2023-07-08T16:30:15;5.60;;;4.30;;
81591;SDS011;71014;53.394;6.724;2023-07-08T16:32:41;5.60;;;4.95;;